createdAt,value
2022-12-28T06:17:30.655Z,17.07
2022-12-28T06:27:30.717Z,19.23
2022-12-28T06:37:30.621Z,21.81
2022-12-28T06:47:30.632Z,21.03
2022-12-28T06:57:30.527Z,23.86
2022-12-28T07:07:30.698Z,21.76
2022-12-28T07:17:30.722Z,24.40
2022-12-28T07:27:30.554Z,23.38
2022-12-28T07:37:30.651Z,22.06
2022-12-28T07:47:30.605Z,23.16
2022-12-28T07:57:30.832Z,19.90
2022-12-28T08:07:30.617Z,20.85
2022-12-28T08:17:30.597Z,22.27
2022-12-28T08:27:36.555Z,23.29
2022-12-28T08:37:30.696Z,22.11
2022-12-28T08:47:30.911Z,18.55
2022-12-28T08:57:30.771Z,22.71
2022-12-28T09:07:30.566Z,21.53
2022-12-28T09:17:30.800Z,20.20
2022-12-28T09:27:30.779Z,21.50
2022-12-28T09:37:30.662Z,23.84
2022-12-28T09:47:30.691Z,20.83
2022-12-28T09:57:30.689Z,23.80
2022-12-28T10:07:30.875Z,21.61
2022-12-28T10:17:30.757Z,24.94
2022-12-28T10:27:30.985Z,23.07
2022-12-28T10:37:30.875Z,22.58
2022-12-28T10:47:30.799Z,20.00
2022-12-28T10:57:31.006Z,20.22
2022-12-28T11:07:30.798Z,23.43
2022-12-28T11:17:30.914Z,25.62
2022-12-28T11:27:30.781Z,26.83
2022-12-28T11:37:30.996Z,22.57
2022-12-28T11:47:31.012Z,18.62
2022-12-28T11:57:30.972Z,23.53
2022-12-28T12:07:32.323Z,22.84
2022-12-28T12:17:30.983Z,21.47
2022-12-28T12:27:30.914Z,21.24
2022-12-28T12:37:31.012Z,17.32
2022-12-28T12:47:30.943Z,15.27
2022-12-28T12:57:30.959Z,18.37
2022-12-28T13:07:31.033Z,15.53
2022-12-28T13:17:31.027Z,16.69
2022-12-28T13:27:30.981Z,18.50
2022-12-28T13:37:31.031Z,15.72
2022-12-28T13:47:31.076Z,18.23
2022-12-28T13:57:48.226Z,16.35
2022-12-28T14:07:31.099Z,15.38
2022-12-28T14:17:30.967Z,16.65
2022-12-28T14:27:31.155Z,16.40
2022-12-28T14:37:31.004Z,15.27
2022-12-28T14:47:31.119Z,15.21
2022-12-28T14:57:31.303Z,16.54
2022-12-28T15:07:31.075Z,18.56
2022-12-28T15:17:33.691Z,16.67
2022-12-28T15:27:31.122Z,19.29
2022-12-28T15:37:31.123Z,20.16
2022-12-28T15:47:31.106Z,21.15
2022-12-28T15:57:31.274Z,23.38
2022-12-28T16:07:31.200Z,23.26
2022-12-28T16:17:31.267Z,18.40
2022-12-28T16:27:31.128Z,17.20
2022-12-28T16:37:31.219Z,19.93
2022-12-28T16:47:31.226Z,19.15
2022-12-28T16:57:31.095Z,16.18
2022-12-28T17:07:31.211Z,14.74
2022-12-28T17:17:31.288Z,13.66
2022-12-28T17:27:31.115Z,15.88
2022-12-28T17:37:31.208Z,19.23
2022-12-28T17:47:31.094Z,21.97
2022-12-28T17:57:36.835Z,22.58
2022-12-28T18:07:31.282Z,21.69
2022-12-28T18:17:31.149Z,17.85
2022-12-28T18:27:31.222Z,21.41
2022-12-28T18:37:31.286Z,17.41
2022-12-28T18:47:31.354Z,16.73
2022-12-28T18:57:31.385Z,19.90
2022-12-28T19:07:31.389Z,17.64
2022-12-28T19:17:31.633Z,14.04
